Time;durP1;ratioP1;P1;durP2;ratioP2;P2;SDS_P1;SDS_P2;PMS_P1;PMS_P2;Temp;Humidity;BMP_temperature;BMP_pressure;BME280_temperature;BME280_humidity;BME280_pressure;Samples;Min_cycle;Max_cycle;Signal;HPM_P1;HPM_P2
2022/05/23 00:00:44;;;;;;;7.87;4.77;;;10.90;99.90;;;;;;4994008;28;20198;-59
2022/05/23 00:03:10;;;;;;;10.80;4.00;;;10.90;99.90;;;;;;4994288;28;20558;-59
2022/05/23 00:05:36;;;;;;;7.70;3.90;;;10.80;99.90;;;;;;4993609;28;20198;-59
2022/05/23 00:08:03;;;;;;;5.90;4.13;;;10.80;99.90;;;;;;4994184;28;20711;-58
2022/05/23 00:10:29;;;;;;;7.23;4.33;;;10.70;99.90;;;;;;4994017;28;20211;-57
2022/05/23 00:12:55;;;;;;;11.10;4.47;;;10.70;99.90;;;;;;4994011;28;20186;-57
2022/05/23 00:15:21;;;;;;;7.73;4.33;;;10.70;99.90;;;;;;4976375;28;20190;-58
2022/05/23 00:17:47;;;;;;;6.17;4.07;;;10.70;99.90;;;;;;4993488;28;20280;-58
2022/05/23 00:20:15;;;;;;;5.50;4.27;;;10.70;99.90;;;;;;4994125;28;20636;-60
2022/05/23 00:22:41;;;;;;;6.77;3.90;;;10.70;99.90;;;;;;4993887;28;20215;-58
2022/05/23 00:25:09;;;;;;;5.10;3.90;;;10.70;99.90;;;;;;4993655;28;20185;-58
2022/05/23 00:27:37;;;;;;;4.80;3.60;;;10.80;99.90;;;;;;4993568;28;20235;-58
2022/05/23 00:30:08;;;;;;;4.90;3.57;;;10.80;99.90;;;;;;4993461;28;20192;-58
2022/05/23 00:35:29;;;;;;;7.00;3.90;;;10.80;99.90;;;;;;4926224;28;20295;-59
2022/05/23 00:37:56;;;;;;;6.03;3.60;;;10.80;99.90;;;;;;5013184;28;20680;-58
2022/05/23 00:40:30;;;;;;;8.83;3.40;;;10.80;99.90;;;;;;4995800;28;20541;-58
2022/05/23 00:43:14;;;;;;;8.63;3.40;;;10.80;99.90;;;;;;5013180;28;20185;-58
2022/05/23 00:45:41;;;;;;;8.40;3.53;;;10.90;99.90;;;;;;5012885;28;20187;-58
2022/05/23 00:48:08;;;;;;;6.33;3.23;;;10.90;99.90;;;;;;5009025;28;20203;-58
2022/05/23 00:50:35;;;;;;;6.43;3.43;;;10.90;99.90;;;;;;5012968;28;20187;-64
2022/05/23 00:53:02;;;;;;;6.03;3.43;;;10.90;99.90;;;;;;5012963;28;20204;-58
2022/05/23 00:55:36;;;;;;;6.43;3.27;;;10.90;99.90;;;;;;5012961;28;20678;-58
2022/05/23 00:58:20;;;;;;;5.83;3.10;;;10.90;99.90;;;;;;5013075;28;20687;-58
2022/05/23 01:00:46;;;;;;;7.50;3.40;;;10.90;99.90;;;;;;5012630;28;20185;-58
2022/05/23 01:03:15;;;;;;;7.70;3.10;;;10.90;99.90;;;;;;5011747;28;20194;-58
2022/05/23 01:05:42;;;;;;;5.33;2.80;;;10.90;99.90;;;;;;5012658;28;20307;-59
2022/05/23 01:08:08;;;;;;;8.87;2.97;;;11.00;99.90;;;;;;5012968;28;20226;-58
2022/05/23 01:10:37;;;;;;;6.17;2.70;;;11.00;99.90;;;;;;5012734;28;20229;-58
2022/05/23 01:13:03;;;;;;;5.13;2.93;;;10.90;99.90;;;;;;5012874;28;20175;-57
2022/05/23 01:15:31;;;;;;;6.13;3.10;;;10.90;99.90;;;;;;5013168;28;20204;-58
2022/05/23 01:17:57;;;;;;;6.10;3.47;;;10.90;99.90;;;;;;5003240;28;20213;-59
2022/05/23 01:20:24;;;;;;;6.43;2.97;;;10.80;99.90;;;;;;4993300;28;20689;-58
2022/05/23 01:23:04;;;;;;;7.97;3.20;;;10.80;99.90;;;;;;4992780;28;20231;-58
2022/05/23 01:25:32;;;;;;;7.63;3.03;;;10.80;99.90;;;;;;4992875;28;20191;-58
2022/05/23 01:27:58;;;;;;;4.20;3.13;;;10.80;99.90;;;;;;4992855;28;20183;-58
2022/05/23 01:30:24;;;;;;;7.33;3.13;;;10.80;99.90;;;;;;4992528;28;20191;-57
2022/05/23 01:32:49;;;;;;;6.87;3.37;;;10.80;99.90;;;;;;4997880;28;20182;-58
2022/05/23 01:35:16;;;;;;;6.17;3.03;;;10.70;99.90;;;;;;5012331;28;20265;-58
2022/05/23 01:37:41;;;;;;;5.73;3.27;;;10.70;99.90;;;;;;5012192;28;20373;-59
2022/05/23 01:40:11;;;;;;;4.63;2.90;;;10.70;99.90;;;;;;5012278;28;20233;-59
2022/05/23 01:42:36;;;;;;;6.80;3.80;;;10.60;99.90;;;;;;5011942;28;20195;-66
2022/05/23 01:45:03;;;;;;;7.97;3.60;;;10.60;99.90;;;;;;5012216;28;20191;-59
2022/05/23 01:47:29;;;;;;;7.23;3.30;;;10.50;99.90;;;;;;5007597;28;20199;-58
2022/05/23 01:49:54;;;;;;;5.87;3.47;;;10.50;99.90;;;;;;4992426;28;20187;-58
2022/05/23 01:52:20;;;;;;;5.77;3.67;;;10.50;99.90;;;;;;4992628;28;20183;-57
2022/05/23 01:54:46;;;;;;;5.53;3.33;;;10.40;99.90;;;;;;4992100;28;20232;-58
2022/05/23 01:57:13;;;;;;;7.10;3.93;;;10.40;99.90;;;;;;4992243;28;20251;-58
2022/05/23 02:02:23;;;;;;;8.60;3.87;;;10.30;99.90;;;;;;4992698;28;20640;-59
2022/05/23 02:04:49;;;;;;;9.77;3.50;;;10.30;99.90;;;;;;4992129;28;20214;-59
2022/05/23 02:07:15;;;;;;;6.10;3.77;;;10.40;99.90;;;;;;4992319;28;20267;-59
2022/05/23 02:09:41;;;;;;;5.93;3.50;;;10.40;99.90;;;;;;4992050;28;20269;-59
2022/05/23 02:12:09;;;;;;;5.77;3.20;;;10.40;99.90;;;;;;4992148;28;20689;-59
2022/05/23 02:14:35;;;;;;;7.17;3.73;;;10.40;99.90;;;;;;4991909;28;20205;-59
2022/05/23 02:17:01;;;;;;;7.50;3.80;;;10.50;99.90;;;;;;4991864;28;20213;-58
2022/05/23 02:19:31;;;;;;;8.33;4.53;;;10.50;99.90;;;;;;4974607;28;20206;-58
2022/05/23 02:21:57;;;;;;;7.80;4.87;;;10.50;99.90;;;;;;4991804;28;20274;-57
2022/05/23 02:24:22;;;;;;;7.23;4.53;;;10.50;99.90;;;;;;4992193;28;20271;-59
2022/05/23 02:26:48;;;;;;;7.63;4.17;;;10.50;99.90;;;;;;4991574;28;20179;-58
2022/05/23 02:29:15;;;;;;;10.10;4.10;;;10.50;99.90;;;;;;4994452;28;20210;-58
2022/05/23 02:31:41;;;;;;;7.03;3.90;;;10.60;99.90;;;;;;4978500;28;20187;-59
2022/05/23 02:34:07;;;;;;;5.47;3.93;;;10.60;99.90;;;;;;5011797;28;20239;-59
2022/05/23 02:36:33;;;;;;;5.97;3.57;;;10.60;99.90;;;;;;4997870;28;20705;-59
2022/05/23 02:38:59;;;;;;;8.77;3.60;;;10.70;99.90;;;;;;4997851;28;20594;-58
2022/05/23 02:41:25;;;;;;;6.90;3.07;;;10.70;99.90;;;;;;5015388;28;20182;-59
2022/05/23 02:43:51;;;;;;;5.43;3.30;;;10.70;99.90;;;;;;5015093;28;20187;-59
2022/05/23 02:46:16;;;;;;;7.23;3.60;;;10.70;99.90;;;;;;5015322;28;20636;-58
2022/05/23 02:48:42;;;;;;;8.10;3.60;;;10.70;99.90;;;;;;4995460;28;20202;-58
2022/05/23 02:51:08;;;;;;;6.37;3.53;;;10.80;99.90;;;;;;5015321;28;20545;-58
2022/05/23 02:53:34;;;;;;;6.90;3.53;;;10.80;99.90;;;;;;5015004;28;20245;-60
2022/05/23 02:55:59;;;;;;;9.93;3.97;;;10.90;99.90;;;;;;5015113;28;20187;-59
2022/05/23 02:58:25;;;;;;;7.03;2.97;;;10.90;99.90;;;;;;5014925;28;20243;-58
2022/05/23 03:00:51;;;;;;;9.83;3.40;;;11.00;99.90;;;;;;5014694;28;20216;-58
2022/05/23 03:03:17;;;;;;;14.30;5.07;;;11.00;99.90;;;;;;5014910;28;20190;-59
2022/05/23 03:05:45;;;;;;;5.80;3.87;;;11.10;99.90;;;;;;5014561;28;20552;-59
2022/05/23 03:08:14;;;;;;;13.00;4.40;;;11.10;99.90;;;;;;5015101;28;20182;-59
2022/05/23 03:10:41;;;;;;;5.17;3.30;;;11.20;99.90;;;;;;5014868;28;20186;-59
2022/05/23 03:13:07;;;;;;;6.37;3.50;;;11.20;99.90;;;;;;5015078;28;20211;-58
2022/05/23 03:15:34;;;;;;;7.30;3.43;;;11.20;99.90;;;;;;5014911;28;20586;-58
2022/05/23 03:18:00;;;;;;;9.13;3.10;;;11.20;99.90;;;;;;5006159;28;20219;-59
2022/05/23 03:20:26;;;;;;;8.50;3.30;;;11.20;99.90;;;;;;4995058;28;20278;-58
2022/05/23 03:28:21;;;;;;;5.23;3.20;;;11.20;99.90;;;;;;4995325;28;20601;-59
2022/05/23 03:30:47;;;;;;;4.97;3.20;;;11.20;99.90;;;;;;4994426;28;20185;-59
2022/05/23 03:33:13;;;;;;;4.97;2.90;;;11.20;99.90;;;;;;5003173;28;20279;-58
2022/05/23 03:35:40;;;;;;;4.70;3.00;;;11.20;99.90;;;;;;5014169;28;20176;-59
2022/05/23 03:38:06;;;;;;;5.20;3.07;;;11.20;99.90;;;;;;5014140;28;20218;-60
2022/05/23 03:40:34;;;;;;;7.00;2.60;;;11.20;99.90;;;;;;5012743;28;20188;-58
2022/05/23 03:43:00;;;;;;;5.10;3.07;;;11.30;99.90;;;;;;5014407;28;20230;-58
2022/05/23 03:45:27;;;;;;;5.30;2.97;;;11.30;99.90;;;;;;5013773;28;20301;-60
2022/05/23 03:47:54;;;;;;;6.23;2.90;;;11.40;99.90;;;;;;5006089;28;20275;-58
2022/05/23 03:50:22;;;;;;;4.23;2.40;;;11.40;99.90;;;;;;4994000;28;20181;-58
2022/05/23 03:52:47;;;;;;;8.83;4.90;;;11.40;99.90;;;;;;4960811;28;20185;-58
2022/05/23 03:55:14;;;;;;;6.73;3.30;;;11.50;99.90;;;;;;4993980;28;20685;-58
2022/05/23 03:57:40;;;;;;;5.77;3.33;;;11.60;99.90;;;;;;4993928;28;20279;-59
2022/05/23 04:00:08;;;;;;;3.70;2.83;;;11.60;99.90;;;;;;4993600;28;20224;-58
2022/05/23 04:02:34;;;;;;;3.50;2.67;;;11.50;99.90;;;;;;4993885;28;20181;-59
2022/05/23 04:05:00;;;;;;;4.73;2.63;;;11.40;99.90;;;;;;4994008;28;20185;-58
2022/05/23 04:07:27;;;;;;;6.20;2.33;;;11.40;99.90;;;;;;4996276;28;20192;-58
2022/05/23 04:09:52;;;;;;;9.40;2.90;;;11.30;99.90;;;;;;5013595;28;20184;-61
2022/05/23 04:12:18;;;;;;;7.83;3.80;;;11.30;99.90;;;;;;5013591;28;20188;-60
2022/05/23 04:14:44;;;;;;;7.20;3.37;;;11.30;99.90;;;;;;5011969;28;20184;-63
2022/05/23 04:17:10;;;;;;;8.87;3.20;;;11.30;99.90;;;;;;5013141;28;20222;-58
2022/05/23 04:19:36;;;;;;;4.97;2.73;;;11.40;99.90;;;;;;5013504;28;20176;-58
2022/05/23 04:22:02;;;;;;;8.13;3.13;;;11.40;99.90;;;;;;5013237;28;20537;-59
2022/05/23 04:24:28;;;;;;;6.67;2.57;;;11.40;99.90;;;;;;5013135;28;20230;-58
2022/05/23 04:26:56;;;;;;;5.90;2.63;;;11.40;99.90;;;;;;5012984;28;20181;-53
2022/05/23 04:29:22;;;;;;;3.57;2.57;;;11.60;99.90;;;;;;5011690;28;20191;-55
2022/05/23 04:31:49;;;;;;;11.80;2.87;;;11.70;99.90;;;;;;5010681;28;20178;-58
2022/05/23 04:36:59;;;;;;;10.20;3.10;;;11.90;99.90;;;;;;4992742;28;20271;-57
2022/05/23 04:39:25;;;;;;;4.57;2.63;;;12.20;99.90;;;;;;4992734;28;20183;-57
2022/05/23 04:41:50;;;;;;;3.63;2.50;;;12.30;99.90;;;;;;4992382;28;20572;-54
2022/05/23 04:44:16;;;;;;;9.50;3.07;;;12.40;99.90;;;;;;4992566;28;20547;-57
2022/05/23 04:49:41;;;;;;;10.37;2.87;;;12.40;99.90;;;;;;4992433;28;20194;-60
2022/05/23 04:52:11;;;;;;;5.87;3.10;;;12.50;99.90;;;;;;4991340;28;20237;-55
2022/05/23 04:54:38;;;;;;;8.00;2.73;;;12.50;99.90;;;;;;4991573;28;20751;-55
2022/05/23 04:57:06;;;;;;;12.00;3.83;;;12.60;99.90;;;;;;4991474;28;20209;-55
2022/05/23 04:59:32;;;;;;;5.63;2.90;;;12.60;99.90;;;;;;4991568;28;20560;-57
2022/05/23 05:01:58;;;;;;;4.17;2.60;;;12.70;99.90;;;;;;4991624;28;20181;-55
2022/05/23 05:04:24;;;;;;;5.13;2.63;;;12.70;99.90;;;;;;4992228;28;20262;-56
2022/05/23 05:06:50;;;;;;;5.73;2.80;;;12.70;99.90;;;;;;4991767;28;20191;-56
2022/05/23 05:09:15;;;;;;;5.60;2.50;;;12.60;99.90;;;;;;4992435;28;20191;-55
2022/05/23 05:11:41;;;;;;;3.50;2.53;;;12.80;99.90;;;;;;4992183;28;20986;-55
2022/05/23 05:14:07;;;;;;;5.90;2.57;;;12.90;99.90;;;;;;4991851;28;20304;-55
2022/05/23 05:16:33;;;;;;;3.23;1.90;;;12.90;99.90;;;;;;4974387;28;20592;-56
2022/05/23 05:18:59;;;;;;;3.63;2.27;;;13.10;99.90;;;;;;4991927;28;20637;-56
2022/05/23 05:21:25;;;;;;;3.33;2.27;;;13.20;99.90;;;;;;4992072;28;20549;-55
2022/05/23 05:23:58;;;;;;;6.13;2.13;;;13.30;99.90;;;;;;5067409;28;20884;-58
2022/05/23 05:26:25;;;;;;;4.20;1.80;;;13.50;99.90;;;;;;5067149;28;20191;-54
2022/05/23 05:28:51;;;;;;;5.40;2.63;;;13.40;99.90;;;;;;5068388;28;20232;-54
2022/05/23 05:32:04;;;;;;;5.17;1.50;;;13.40;99.90;;;;;;5067537;28;20176;-61
2022/05/23 05:34:44;;;;;;;5.30;2.00;;;13.60;99.90;;;;;;5045748;28;20280;-57
2022/05/23 05:37:25;;;;;;;6.43;2.10;;;13.80;99.90;;;;;;5058699;28;20205;-55
2022/05/23 05:39:53;;;;;;;12.70;2.13;;;14.00;99.90;;;;;;5068154;28;20182;-58
2022/05/23 05:42:26;;;;;;;6.37;1.97;;;13.90;99.90;;;;;;5084963;28;20684;-56
2022/05/23 05:45:00;;;;;;;3.20;1.90;;;13.80;99.90;;;;;;5079647;28;20194;-56
2022/05/23 05:47:27;;;;;;;4.17;2.23;;;13.70;99.90;;;;;;5077922;28;20191;-56
2022/05/23 05:49:58;;;;;;;7.03;2.20;;;13.80;99.90;;;;;;5086767;28;20211;-65
2022/05/23 05:52:29;;;;;;;4.13;2.17;;;13.80;99.90;;;;;;5086215;28;20200;-56
2022/05/23 05:54:55;;;;;;;4.13;2.10;;;13.60;99.90;;;;;;5083164;28;20200;-56
2022/05/23 05:57:22;;;;;;;6.60;2.27;;;13.60;99.90;;;;;;5087362;28;20216;-60
2022/05/23 05:59:49;;;;;;;7.67;2.40;;;13.50;99.90;;;;;;5087366;28;20192;-56
2022/05/23 06:02:15;;;;;;;6.20;2.63;;;13.50;99.90;;;;;;5077300;28;20215;-55
2022/05/23 06:04:41;;;;;;;3.23;2.23;;;13.40;99.90;;;;;;5069229;28;20316;-58
2022/05/23 06:12:35;;;;;;;6.83;2.77;;;13.40;99.90;;;;;;5081412;28;20242;-56
2022/05/23 06:15:01;;;;;;;2.93;1.97;;;13.40;99.90;;;;;;5085881;28;20620;-55
2022/05/23 06:17:27;;;;;;;5.07;1.90;;;13.40;99.90;;;;;;5086585;28;20189;-59
2022/05/23 06:19:52;;;;;;;5.20;2.17;;;13.40;99.90;;;;;;5084608;28;20208;-57
2022/05/23 06:22:19;;;;;;;4.63;1.77;;;13.40;99.90;;;;;;5083802;28;20318;-56
2022/05/23 06:24:45;;;;;;;5.43;1.67;;;13.60;99.90;;;;;;5066692;28;20229;-60
2022/05/23 06:27:11;;;;;;;7.67;2.53;;;13.70;99.90;;;;;;5079009;28;20324;-57
2022/05/23 06:29:38;;;;;;;3.93;2.17;;;14.20;99.90;;;;;;5085521;28;20193;-58
2022/05/23 06:32:05;;;;;;;4.43;2.43;;;14.40;99.90;;;;;;5086257;28;20204;-59
2022/05/23 06:34:31;;;;;;;5.93;2.13;;;14.40;99.90;;;;;;5063941;28;20187;-54
2022/05/23 06:36:57;;;;;;;7.23;1.93;;;14.20;99.90;;;;;;5072798;28;20269;-55
2022/05/23 06:39:23;;;;;;;6.27;2.43;;;13.80;99.90;;;;;;5059500;28;20243;-57
2022/05/23 06:41:49;;;;;;;7.93;3.47;;;13.50;99.90;;;;;;5073233;28;20207;-55
2022/05/23 06:44:15;;;;;;;9.13;2.07;;;13.50;99.90;;;;;;5068712;28;20192;-56
2022/05/23 06:46:41;;;;;;;7.73;2.33;;;13.30;99.90;;;;;;5065255;28;20199;-55
2022/05/23 06:49:08;;;;;;;4.63;2.17;;;13.40;99.90;;;;;;5072702;28;20205;-57
2022/05/23 06:51:34;;;;;;;13.07;2.70;;;13.60;99.90;;;;;;5064443;28;20252;-60
2022/05/23 06:54:00;;;;;;;6.97;2.60;;;13.40;99.90;;;;;;5052996;28;20181;-57
2022/05/23 06:56:28;;;;;;;6.63;2.30;;;13.30;99.90;;;;;;5052608;28;20277;-57
2022/05/23 06:58:54;;;;;;;6.37;2.73;;;13.20;99.90;;;;;;5052520;28;20201;-65
2022/05/23 07:01:20;;;;;;;6.10;1.80;;;13.20;99.90;;;;;;5051566;28;20183;-56
2022/05/23 07:03:46;;;;;;;4.57;2.37;;;13.20;99.90;;;;;;5052799;28;20217;-56
2022/05/23 07:14:26;;;;;;;5.97;1.70;;;13.40;99.90;;;;;;5052307;28;20565;-59
2022/05/23 07:16:53;;;;;;;6.10;2.00;;;13.40;99.90;;;;;;5050818;28;20561;-57
2022/05/23 07:19:19;;;;;;;4.97;2.13;;;13.40;99.90;;;;;;5052174;28;20192;-59
2022/05/23 07:21:44;;;;;;;5.20;2.13;;;13.40;99.90;;;;;;5052362;28;20265;-56
2022/05/23 07:24:10;;;;;;;2.63;1.50;;;13.40;99.90;;;;;;5052263;28;20182;-57
2022/05/23 07:26:37;;;;;;;3.33;1.87;;;13.40;99.90;;;;;;5052585;28;20257;-56
2022/05/23 07:29:04;;;;;;;4.57;2.50;;;13.20;99.90;;;;;;5052416;28;20673;-55
2022/05/23 07:31:29;;;;;;;9.83;3.33;;;13.10;99.90;;;;;;5052419;28;20190;-60
2022/05/23 07:33:55;;;;;;;3.20;2.07;;;13.00;99.90;;;;;;5052360;28;20622;-64
2022/05/23 07:36:21;;;;;;;6.33;2.97;;;12.90;99.90;;;;;;5052116;28;20178;-55
2022/05/23 07:38:47;;;;;;;8.00;3.07;;;12.80;99.90;;;;;;5052437;28;20174;-56
2022/05/23 07:41:14;;;;;;;5.33;2.77;;;12.70;99.90;;;;;;5052225;28;20520;-54
2022/05/23 07:43:41;;;;;;;6.50;2.60;;;12.70;99.90;;;;;;5051920;28;20222;-58
2022/05/23 07:46:13;;;;;;;9.63;2.70;;;12.80;99.90;;;;;;5051102;28;20193;-56
2022/05/23 07:48:48;;;;;;;3.83;2.17;;;12.80;99.90;;;;;;5052322;28;20182;-55
2022/05/23 07:51:20;;;;;;;7.37;2.63;;;12.90;99.90;;;;;;5052765;28;20185;-59
2022/05/23 08:01:59;;;;;;;7.93;3.23;;;12.70;99.90;;;;;;5051950;28;20256;-58
2022/05/23 08:04:25;;;;;;;6.23;3.60;;;12.90;99.90;;;;;;5051746;28;20273;-55
2022/05/23 08:06:52;;;;;;;5.90;3.40;;;13.00;99.90;;;;;;5051719;28;20537;-59
2022/05/23 08:09:18;;;;;;;8.10;4.40;;;13.10;99.90;;;;;;5051937;28;20187;-56
2022/05/23 08:11:49;;;;;;;24.87;4.93;;;13.30;99.90;;;;;;5052325;28;20186;-57
2022/05/23 08:14:16;;;;;;;7.40;4.53;;;13.50;99.90;;;;;;5051651;28;20171;-58
2022/05/23 08:16:42;;;;;;;7.87;4.63;;;13.60;99.90;;;;;;5051820;28;20174;-62
2022/05/23 08:19:08;;;;;;;8.20;4.20;;;13.70;99.90;;;;;;5051358;28;20630;-60
2022/05/23 08:21:38;;;;;;;9.60;4.37;;;13.70;99.90;;;;;;5051197;28;20179;-57
2022/05/23 08:24:04;;;;;;;8.43;4.37;;;13.70;99.90;;;;;;5051157;28;20198;-57
2022/05/23 08:26:30;;;;;;;14.63;5.10;;;13.90;99.90;;;;;;5051872;28;20262;-57
2022/05/23 08:28:55;;;;;;;9.10;4.57;;;13.90;99.90;;;;;;5051712;28;20206;-58
2022/05/23 08:31:21;;;;;;;6.70;3.70;;;14.30;99.90;;;;;;5050902;28;20602;-55
2022/05/23 08:33:47;;;;;;;9.73;3.93;;;14.30;99.90;;;;;;5050974;28;20197;-59
2022/05/23 08:36:13;;;;;;;5.30;3.23;;;14.20;99.90;;;;;;5050790;28;20174;-57
2022/05/23 08:38:39;;;;;;;8.97;4.30;;;14.10;99.90;;;;;;5051457;28;20231;-55
2022/05/23 08:41:08;;;;;;;8.70;4.30;;;14.00;99.90;;;;;;5051163;28;20260;-56
2022/05/23 08:43:56;;;;;;;6.40;3.37;;;14.10;99.90;;;;;;5051150;28;20289;-56
2022/05/23 08:46:30;;;;;;;5.70;3.20;;;13.90;99.90;;;;;;5050842;28;20183;-59
2022/05/23 08:49:04;;;;;;;10.17;3.37;;;13.80;99.90;;;;;;5051135;28;20175;-57
2022/05/23 08:51:43;;;;;;;7.50;3.80;;;13.60;99.90;;;;;;5050287;28;20171;-55
2022/05/23 08:54:14;;;;;;;12.13;3.70;;;13.30;99.90;;;;;;5050048;28;20229;-59
2022/05/23 08:56:49;;;;;;;7.17;2.93;;;13.10;99.90;;;;;;5049967;28;20602;-56
2022/05/23 08:59:27;;;;;;;8.80;3.73;;;13.00;99.90;;;;;;5050755;28;20707;-56
2022/05/23 09:02:01;;;;;;;7.17;3.57;;;12.90;99.90;;;;;;5050284;28;20631;-57
2022/05/23 09:04:57;;;;;;;10.90;3.33;;;12.90;99.90;;;;;;5050651;28;20299;-56
2022/05/23 09:07:47;;;;;;;7.57;3.27;;;12.80;99.90;;;;;;5050228;28;20254;-59
2022/05/23 09:10:25;;;;;;;10.97;4.20;;;12.70;99.90;;;;;;5050430;28;20201;-57
2022/05/23 09:12:53;;;;;;;10.93;3.30;;;12.90;99.90;;;;;;5050984;28;20182;-56
2022/05/23 09:15:19;;;;;;;8.73;3.63;;;13.20;99.90;;;;;;5050040;28;20191;-59
2022/05/23 09:17:57;;;;;;;7.13;3.13;;;13.30;99.90;;;;;;5050740;28;20692;-55
2022/05/23 09:20:45;;;;;;;5.27;2.97;;;13.40;99.90;;;;;;5050689;28;20176;-58
2022/05/23 09:23:31;;;;;;;4.43;3.20;;;13.50;99.90;;;;;;5049612;28;20709;-57
2022/05/23 09:26:02;;;;;;;5.23;3.33;;;13.50;99.90;;;;;;5050860;28;20257;-51
2022/05/23 09:28:27;;;;;;;6.30;3.60;;;13.20;99.90;;;;;;5050735;28;20197;-54
2022/05/23 09:31:32;;;;;;;10.20;5.43;;;13.30;99.90;;;;;;5050469;28;20188;-57
2022/05/23 09:33:59;;;;;;;4.63;2.80;;;13.50;99.90;;;;;;5050648;28;20189;-56
2022/05/23 09:36:25;;;;;;;6.43;3.50;;;13.50;99.90;;;;;;5050340;28;20174;-57
2022/05/23 09:38:51;;;;;;;12.23;4.50;;;13.60;99.90;;;;;;5050458;28;20259;-54
2022/05/23 09:47:54;;;;;;;5.23;3.60;;;14.10;99.90;;;;;;5050773;28;20193;-59
2022/05/23 09:50:26;;;;;;;5.53;3.80;;;14.50;99.90;;;;;;5050179;28;20190;-57
2022/05/23 09:52:56;;;;;;;8.63;3.80;;;14.60;99.90;;;;;;5049880;28;20259;-53
2022/05/23 09:55:33;;;;;;;12.83;4.80;;;14.60;99.90;;;;;;5047955;28;20186;-57
2022/05/23 09:58:02;;;;;;;6.40;4.10;;;15.30;99.90;;;;;;5038318;28;20243;-57
2022/05/23 10:00:38;;;;;;;10.63;4.80;;;15.70;99.90;;;;;;5047877;28;20602;-57
2022/05/23 10:03:19;;;;;;;8.13;3.87;;;15.50;99.90;;;;;;5049370;28;20345;-58
2022/05/23 10:05:50;;;;;;;5.37;3.60;;;15.50;99.90;;;;;;5050378;28;20178;-57
2022/05/23 10:08:43;;;;;;;8.73;4.03;;;15.40;99.90;;;;;;5049880;28;20206;-58
2022/05/23 10:11:20;;;;;;;15.50;4.80;;;15.10;99.90;;;;;;5051132;28;20193;-57
2022/05/23 10:13:52;;;;;;;7.03;4.10;;;15.00;99.90;;;;;;5053498;28;20188;-60
2022/05/23 10:16:28;;;;;;;6.37;4.57;;;15.40;99.90;;;;;;5052028;28;20178;-57
2022/05/23 10:19:03;;;;;;;7.10;4.13;;;15.60;99.90;;;;;;5052602;28;20184;-59
2022/05/23 10:21:38;;;;;;;11.53;5.73;;;15.90;99.90;;;;;;5053253;28;20181;-58
2022/05/23 10:24:16;;;;;;;10.87;4.30;;;16.20;99.90;;;;;;5052282;28;20244;-63
2022/05/23 10:27:00;;;;;;;10.13;4.80;;;16.30;99.90;;;;;;5054036;28;20201;-57
2022/05/23 10:29:33;;;;;;;9.37;4.77;;;16.20;99.90;;;;;;5051812;28;20184;-59
2022/05/23 10:32:09;;;;;;;10.60;5.47;;;16.20;99.90;;;;;;5053206;28;20206;-56
2022/05/23 10:34:51;;;;;;;11.47;5.40;;;16.00;99.90;;;;;;5052957;28;20328;-57
2022/05/23 10:37:25;;;;;;;9.47;4.30;;;16.20;99.90;;;;;;5052983;28;20192;-57
2022/05/23 10:43:19;;;;;;;8.27;4.53;;;16.40;99.90;;;;;;5053334;28;20209;-60
2022/05/23 10:45:51;;;;;;;11.70;4.80;;;16.40;99.90;;;;;;5053173;28;20182;-58
2022/05/23 10:48:16;;;;;;;8.53;4.63;;;16.50;99.50;;;;;;5047071;28;20277;-60
2022/05/23 10:51:07;;;;;;;9.97;4.83;;;16.40;99.20;;;;;;5046217;28;20696;-56
2022/05/23 10:53:52;;;;;;;8.27;4.40;;;16.30;99.50;;;;;;5037439;28;20215;-56
2022/05/23 10:56:26;;;;;;;10.63;4.30;;;15.80;99.90;;;;;;5051803;28;20230;-54
2022/05/23 10:59:02;;;;;;;10.20;4.97;;;15.70;99.90;;;;;;5052441;28;20182;-56
2022/05/23 11:02:01;;;;;;;10.47;5.00;;;15.60;99.90;;;;;;5049560;28;20177;-57
2022/05/23 11:04:29;;;;;;;6.87;4.57;;;16.20;99.90;;;;;;5048987;28;20206;-56
2022/05/23 11:06:58;;;;;;;11.37;5.30;;;16.60;99.60;;;;;;5053004;28;20194;-58
2022/05/23 11:09:46;;;;;;;12.57;5.83;;;16.50;99.90;;;;;;5051448;28;20186;-56
2022/05/23 11:12:45;;;;;;;10.17;6.23;;;16.50;99.20;;;;;;5057297;28;20189;-57
2022/05/23 11:15:36;;;;;;;10.33;5.77;;;16.70;99.10;;;;;;5064980;28;20190;-57
2022/05/23 11:18:33;;;;;;;8.10;5.50;;;17.00;98.90;;;;;;5058431;28;20198;-56
2022/05/23 11:21:07;;;;;;;9.13;4.80;;;16.90;98.90;;;;;;5062559;28;20193;-64
2022/05/23 11:23:45;;;;;;;11.83;6.17;;;17.30;97.90;;;;;;5064014;28;20616;-58
2022/05/23 11:26:39;;;;;;;12.33;5.20;;;18.90;95.80;;;;;;5068951;28;20189;-56
2022/05/23 11:35:07;;;;;;;7.55;5.60;;;20.90;90.40;;;;;;5051285;28;20228;-61
2022/05/23 11:37:45;;;;;;;9.55;4.88;;;21.10;89.70;;;;;;5052358;28;20186;-57
2022/05/23 11:40:26;;;;;;;7.13;5.15;;;20.70;89.00;;;;;;5052155;28;20268;-58
2022/05/23 11:42:56;;;;;;;13.05;4.75;;;21.10;87.50;;;;;;5052094;28;20214;-59
2022/05/23 11:48:41;;;;;;;11.25;6.63;;;23.30;80.20;;;;;;5052138;28;20232;-57
2022/05/23 11:51:12;;;;;;;12.02;6.60;;;24.50;73.90;;;;;;5052200;28;20247;-59
2022/05/23 11:53:56;;;;;;;10.50;6.95;;;23.30;73.40;;;;;;5052241;28;20181;-57
2022/05/23 11:57:00;;;;;;;9.50;5.03;;;23.60;72.90;;;;;;5051887;28;20194;-59
2022/05/23 11:59:25;;;;;;;8.05;4.35;;;23.30;73.30;;;;;;5051494;28;20200;-59
2022/05/23 12:02:12;;;;;;;19.17;8.20;;;23.90;73.90;;;;;;5051698;28;20614;-57
2022/05/23 12:05:07;;;;;;;13.20;5.60;;;23.30;72.20;;;;;;5051817;28;20177;-59
2022/05/23 12:07:42;;;;;;;7.45;4.28;;;23.40;72.40;;;;;;5045851;28;20190;-60
2022/05/23 12:10:24;;;;;;;12.27;4.78;;;24.00;70.70;;;;;;5051361;28;20196;-58
2022/05/23 12:12:53;;;;;;;7.45;5.20;;;23.20;72.10;;;;;;5051696;28;20224;-61
2022/05/23 12:15:43;;;;;;;8.10;4.40;;;21.40;75.50;;;;;;5051186;28;20213;-60
2022/05/23 12:18:37;;;;;;;8.52;4.05;;;21.40;74.20;;;;;;5051009;28;20258;-56
2022/05/23 12:21:35;;;;;;;8.52;4.45;;;20.80;73.80;;;;;;5051297;28;20253;-59
2022/05/23 12:24:31;;;;;;;7.80;4.25;;;21.90;72.10;;;;;;5051582;28;20698;-59
2022/05/23 12:27:01;;;;;;;7.68;4.47;;;21.00;74.10;;;;;;5046646;28;20190;-60
2022/05/23 12:29:34;;;;;;;8.80;4.40;;;21.80;73.40;;;;;;5051836;28;20170;-63
2022/05/23 12:32:27;;;;;;;6.97;5.03;;;22.90;71.70;;;;;;5050774;28;20508;-60
2022/05/23 12:34:56;;;;;;;9.50;3.70;;;23.80;70.00;;;;;;5050984;28;20547;-61
2022/05/23 12:37:30;;;;;;;12.63;4.75;;;23.20;68.70;;;;;;5050904;28;20174;-59
2022/05/23 12:40:17;;;;;;;3.85;3.20;;;22.60;68.90;;;;;;5050997;28;20178;-61
2022/05/23 12:43:13;;;;;;;12.85;6.50;;;22.40;69.80;;;;;;5051134;28;20560;-59
2022/05/23 12:45:58;;;;;;;9.27;3.90;;;23.00;68.90;;;;;;5040436;28;20615;-59
2022/05/23 12:48:48;;;;;;;6.88;4.22;;;24.30;65.20;;;;;;5050652;28;20178;-60
2022/05/23 12:51:35;;;;;;;5.90;3.58;;;23.90;65.50;;;;;;5050739;28;20178;-59
2022/05/23 12:54:04;;;;;;;8.93;4.78;;;26.10;63.60;;;;;;5050881;28;20226;-60
2022/05/23 12:57:01;;;;;;;9.75;4.15;;;28.50;59.10;;;;;;5050896;28;20182;-58
2022/05/23 12:59:43;;;;;;;8.52;4.97;;;29.90;54.10;;;;;;5050685;28;20170;-61
2022/05/23 13:02:19;;;;;;;7.43;5.07;;;29.10;53.70;;;;;;5050659;28;20248;-60
2022/05/23 13:05:07;;;;;;;15.05;7.82;;;28.30;52.40;;;;;;5051287;28;20166;-58
2022/05/23 13:07:47;;;;;;;8.35;6.18;;;25.40;55.10;;;;;;5049297;28;20186;-58
2022/05/23 13:10:23;;;;;;;8.50;4.90;;;25.50;56.90;;;;;;5050313;28;20253;-65
2022/05/23 13:13:26;;;;;;;9.20;5.13;;;26.20;55.00;;;;;;5049100;28;20186;-59
2022/05/23 13:15:52;;;;;;;7.22;4.63;;;26.50;54.60;;;;;;5050916;28;20208;-57
2022/05/23 13:23:52;;;;;;;8.60;4.95;;;28.00;53.70;;;;;;5050383;28;20310;-59
2022/05/23 13:26:19;;;;;;;9.27;4.55;;;28.30;51.70;;;;;;5050048;28;20185;-61
2022/05/23 13:28:50;;;;;;;9.23;5.00;;;29.70;50.70;;;;;;5050461;28;20197;-60
2022/05/23 13:31:23;;;;;;;14.60;5.85;;;29.20;50.70;;;;;;5048537;28;20193;-61
2022/05/23 13:33:49;;;;;;;7.22;4.72;;;30.30;50.20;;;;;;5050212;28;20324;-61
2022/05/23 13:36:15;;;;;;;9.05;5.50;;;29.00;50.30;;;;;;5048905;28;20653;-61
2022/05/23 13:38:43;;;;;;;7.25;4.85;;;27.40;53.10;;;;;;5051087;28;20182;-60
2022/05/23 13:41:28;;;;;;;10.13;4.78;;;26.90;53.50;;;;;;5033183;28;20185;-59
2022/05/23 13:43:54;;;;;;;6.43;4.10;;;27.70;52.70;;;;;;5050556;28;20680;-61
2022/05/23 13:46:25;;;;;;;4.63;3.63;;;28.50;50.30;;;;;;5054596;28;20231;-60
2022/05/23 13:48:55;;;;;;;11.15;3.30;;;28.60;49.30;;;;;;5054274;28;20179;-58
2022/05/23 13:51:28;;;;;;;4.53;3.03;;;28.20;49.20;;;;;;5054677;28;20224;-58
2022/05/23 13:54:01;;;;;;;5.47;3.25;;;29.20;48.90;;;;;;5054546;28;20198;-61
2022/05/23 13:56:27;;;;;;;5.32;3.42;;;30.10;46.90;;;;;;5052244;28;20178;-59
2022/05/23 13:58:58;;;;;;;9.15;4.00;;;31.20;46.20;;;;;;5048518;28;20220;-60
2022/05/23 14:01:32;;;;;;;8.93;4.43;;;31.70;44.80;;;;;;5052292;28;20555;-61
2022/05/23 14:04:11;;;;;;;8.00;4.50;;;32.00;44.50;;;;;;5063356;28;20235;-58
2022/05/23 14:06:43;;;;;;;7.07;4.38;;;31.60;43.70;;;;;;5062908;28;20191;-59
2022/05/23 14:09:11;;;;;;;8.32;4.10;;;31.10;45.10;;;;;;5058313;28;20242;-62